South Beach, OR (97366)

8:10 PM PST on February 07, 2016 (GMT -0800)
Ona Beach | | Change Station
CLOSE
Current Station
Personal Weather Station
Location: South Beach, OR
Elevation: 60 ft
Nearby Weather Stations

Elev 60 ft 44.53 °N, 124.07 °W | Updated 39 seconds ago

Clear
Clear
55.8 °F
Feels Like 55.8 °F
N
1.0
Wind Variable Wind from East
Gusts 3.0 mph

Today
High -- | Low -- °F
--% Chance of Precip.
Yesterday
High -- | Low -- °F
Precip. -- in
Pressure 30.39 in
Visibility 10.0 miles
Clouds Clear
Dew Point 49 °F
Humidity 78%
Rainfall 0.01 in
Snow Depth Not available.
7:27 AM 5:33 PM
Waning Crescent, 0% visible
METAR KONP 080355Z AUTO 08013KT 10SM CLR 15/08 A3039 RMK AO2
Pressure 30.39 in
Visibility 10.0 miles
Clouds Clear
Dew Point 49 °F
Humidity 78%
Rainfall 0.01 in
Snow Depth Not available.
7:27 AM 5:33 PM
Waning Crescent, 0% visible
METAR KONP 080355Z AUTO 08013KT 10SM CLR 15/08 A3039 RMK AO2

10-Day Weather Forecast

Almanac

Astronomy

Feb. 07, 2016 Rise Set
Actual Time
Civil Twilight
Nautical Twilight
Astronomical Twilight
Moon
Length of Visible Light
Length of Day
Tomorrow will be .
, % of the Moon is Illuminated

Today's Extremes

State Highs State Lows

Community

WunderPhotos

Upload Photos

1,891,378 photos uploaded!

WunderBlog® & News

Nearby

Air Quality

  Air Quality AQ Index Pollutant
Not available.

Snow Depth

Station Depth Elevation

Earthquake Activity

City Distance Mag. Time & Date
Minimum magnitude displayed is 2.5.

Coastal Water Temperatures

Place Temperature

Stations

Nearby Weather Stations

Station Location Temp. Windchill Dew Point Humidity Wind Precip. Elev Updated Type
                   

Watches & Warnings

There are currently no watches in effect.